Time;durP1;ratioP1;P1;durP2;ratioP2;P2;SDS_P1;SDS_P2;PMS_P1;PMS_P2;Temp;Humidity;BMP_temperature;BMP_pressure;BME280_temperature;BME280_humidity;BME280_pressure;Samples;Min_cycle;Max_cycle;Signal;HPM_P1;HPM_P2
2022/03/12 00:00:46;;;;;;;8.35;5.07;;;20.80;38.20;;;;;;5012523;28;20026;-73
2022/03/12 00:03:13;;;;;;;8.20;4.53;;;20.70;38.20;;;;;;5013874;28;20018;-72
2022/03/12 00:05:47;;;;;;;8.45;4.80;;;20.80;38.20;;;;;;5013936;28;20909;-73
2022/03/12 00:08:12;;;;;;;7.90;5.13;;;20.70;38.30;;;;;;5013796;28;20025;-73
2022/03/12 00:10:46;;;;;;;9.27;5.03;;;20.70;38.20;;;;;;5013435;28;20434;-73
2022/03/12 00:13:12;;;;;;;8.93;5.22;;;20.70;38.30;;;;;;5014108;28;20026;-73
2022/03/12 00:15:37;;;;;;;9.70;4.95;;;20.70;38.40;;;;;;5012572;28;20482;-72
2022/03/12 00:18:05;;;;;;;8.48;4.80;;;20.70;38.30;;;;;;5012489;28;20534;-72
2022/03/12 00:20:32;;;;;;;8.27;5.07;;;20.70;38.40;;;;;;5011910;28;20037;-73
2022/03/12 00:22:58;;;;;;;8.77;5.13;;;20.70;38.40;;;;;;5002246;23;20060;-72
2022/03/12 00:25:26;;;;;;;9.10;4.90;;;20.70;38.50;;;;;;4976057;28;20522;-76
2022/03/12 00:27:53;;;;;;;8.30;4.95;;;20.70;38.40;;;;;;4993471;28;20391;-73
2022/03/12 00:30:22;;;;;;;8.00;4.82;;;20.70;38.40;;;;;;4993566;28;20026;-73
2022/03/12 00:32:49;;;;;;;7.22;4.50;;;20.70;38.50;;;;;;4993373;28;20046;-72
2022/03/12 00:35:16;;;;;;;10.50;5.28;;;20.70;38.50;;;;;;4993755;28;20049;-72
2022/03/12 00:37:43;;;;;;;7.70;4.88;;;20.70;38.50;;;;;;4993969;28;20027;-73
2022/03/12 00:40:09;;;;;;;9.30;4.93;;;20.70;38.50;;;;;;4993638;28;20442;-73
2022/03/12 00:42:35;;;;;;;9.18;4.95;;;20.70;38.50;;;;;;4960095;28;20380;-73
2022/03/12 00:45:00;;;;;;;7.88;4.90;;;20.80;38.50;;;;;;4993637;28;20033;-72
2022/03/12 00:47:28;;;;;;;8.50;4.78;;;20.80;38.60;;;;;;4992412;28;20026;-72
2022/03/12 00:49:54;;;;;;;7.82;4.80;;;20.70;39.30;;;;;;4975530;28;20034;-72
2022/03/12 00:52:21;;;;;;;7.45;4.50;;;20.80;38.70;;;;;;4992324;28;20026;-72
2022/03/12 00:54:47;;;;;;;7.90;4.53;;;20.70;38.60;;;;;;4992318;28;20098;-73
2022/03/12 00:57:13;;;;;;;8.90;4.80;;;20.70;38.60;;;;;;4993460;28;20118;-72
2022/03/12 00:59:41;;;;;;;7.78;4.57;;;20.70;38.60;;;;;;4992928;28;20035;-72
2022/03/12 01:02:13;;;;;;;8.00;4.88;;;20.70;38.60;;;;;;4993076;28;20488;-72
2022/03/12 01:04:39;;;;;;;7.45;4.43;;;20.70;38.70;;;;;;4991968;28;20038;-71
2022/03/12 01:07:05;;;;;;;9.05;4.78;;;20.70;38.70;;;;;;4993047;28;20057;-71
2022/03/12 01:09:31;;;;;;;8.65;5.03;;;20.70;38.70;;;;;;4992545;28;20468;-71
2022/03/12 01:11:57;;;;;;;8.77;4.95;;;20.70;38.80;;;;;;4992894;28;20026;-72
2022/03/12 01:14:23;;;;;;;7.60;4.57;;;20.70;39.10;;;;;;4992210;28;20030;-72
2022/03/12 01:16:49;;;;;;;7.82;4.78;;;20.70;38.80;;;;;;4993029;28;20034;-72
2022/03/12 01:19:15;;;;;;;9.13;5.05;;;20.70;38.80;;;;;;4991483;28;20033;-72
2022/03/12 01:21:41;;;;;;;8.40;4.72;;;20.70;38.80;;;;;;4992695;28;20034;-72
2022/03/12 01:24:07;;;;;;;7.78;4.47;;;20.70;38.70;;;;;;4993010;28;20105;-72
2022/03/12 01:26:35;;;;;;;6.57;4.35;;;20.70;38.70;;;;;;4975742;28;20192;-72
2022/03/12 01:29:01;;;;;;;8.05;4.50;;;20.70;38.80;;;;;;4992642;28;20105;-72
2022/03/12 01:31:27;;;;;;;8.40;5.00;;;20.70;38.90;;;;;;4991298;28;20022;-72
2022/03/12 01:33:53;;;;;;;10.02;5.30;;;20.70;39.00;;;;;;4991576;28;20038;-73
2022/03/12 01:36:19;;;;;;;7.53;4.60;;;20.70;38.90;;;;;;4992626;28;20037;-72
2022/03/12 01:38:48;;;;;;;8.43;5.03;;;20.70;39.60;;;;;;4991853;28;20378;-72
2022/03/12 01:41:40;;;;;;;8.02;4.75;;;20.70;39.00;;;;;;4991132;28;20092;-72
2022/03/12 01:44:07;;;;;;;8.20;4.50;;;20.70;38.90;;;;;;4992592;28;20034;-72
2022/03/12 01:46:37;;;;;;;8.27;4.95;;;20.70;38.90;;;;;;4992504;28;20418;-73
2022/03/12 01:49:12;;;;;;;7.40;4.53;;;20.70;38.80;;;;;;4992417;28;20026;-73
2022/03/12 01:51:41;;;;;;;7.60;4.38;;;20.70;38.90;;;;;;4991191;28;20046;-72
2022/03/12 01:54:07;;;;;;;8.82;4.90;;;20.70;39.00;;;;;;4992810;28;20023;-72
2022/03/12 01:56:38;;;;;;;6.05;4.20;;;20.70;39.00;;;;;;4991639;28;20030;-73
2022/03/12 01:59:04;;;;;;;8.93;5.18;;;20.70;38.90;;;;;;4991142;28;20070;-73
2022/03/12 02:01:31;;;;;;;7.50;4.53;;;20.70;39.10;;;;;;4992101;28;20022;-72
2022/03/12 02:04:00;;;;;;;7.78;4.95;;;20.70;38.90;;;;;;4992208;28;20080;-73
2022/03/12 02:06:27;;;;;;;7.32;4.68;;;20.70;39.00;;;;;;4992204;28;20038;-72
2022/03/12 02:08:58;;;;;;;8.98;4.60;;;20.70;39.10;;;;;;4992077;28;20081;-73
2022/03/12 02:11:28;;;;;;;8.07;5.00;;;20.70;39.00;;;;;;4991770;28;20026;-72
2022/03/12 02:14:11;;;;;;;7.40;4.70;;;20.70;39.10;;;;;;4992222;28;20027;-72
2022/03/12 02:16:38;;;;;;;8.43;4.65;;;20.70;39.20;;;;;;4992066;28;20030;-72
2022/03/12 02:19:04;;;;;;;10.07;5.35;;;20.70;39.70;;;;;;4991683;28;20062;-72
2022/03/12 02:21:44;;;;;;;8.55;4.75;;;20.70;39.10;;;;;;4991249;28;20084;-73
2022/03/12 02:24:12;;;;;;;8.18;4.80;;;20.70;39.00;;;;;;4992040;28;20030;-72
2022/03/12 02:26:41;;;;;;;8.13;4.40;;;20.70;39.20;;;;;;4992266;28;20085;-72
2022/03/12 02:29:13;;;;;;;8.50;4.85;;;20.70;39.20;;;;;;4992061;28;20026;-72
2022/03/12 02:31:42;;;;;;;7.53;4.50;;;20.70;39.20;;;;;;4991848;28;20040;-72
2022/03/12 02:34:10;;;;;;;7.85;4.50;;;20.70;39.20;;;;;;4991958;28;20023;-72
2022/03/12 02:36:37;;;;;;;9.27;4.82;;;20.70;39.20;;;;;;4992177;28;20026;-72
2022/03/12 02:39:05;;;;;;;8.23;4.60;;;20.70;39.20;;;;;;4990792;28;20022;-72
2022/03/12 02:41:31;;;;;;;9.60;4.88;;;20.70;39.20;;;;;;4991438;28;20042;-72
2022/03/12 02:43:57;;;;;;;8.38;4.95;;;20.70;39.30;;;;;;4991829;28;20551;-72
2022/03/12 02:46:27;;;;;;;6.95;4.50;;;20.70;39.10;;;;;;4974298;28;20775;-72
2022/03/12 02:48:56;;;;;;;7.70;5.05;;;20.70;39.30;;;;;;4991791;28;20034;-72
2022/03/12 02:51:22;;;;;;;7.53;4.72;;;20.70;39.30;;;;;;4991404;28;20072;-72
2022/03/12 02:53:53;;;;;;;8.73;4.90;;;20.70;39.30;;;;;;4990623;28;20117;-73
2022/03/12 02:56:19;;;;;;;7.72;4.60;;;20.70;39.30;;;;;;4991704;28;20038;-72
2022/03/12 02:58:45;;;;;;;7.20;4.63;;;20.70;39.30;;;;;;4991902;28;20042;-72
2022/03/12 03:01:14;;;;;;;9.30;5.13;;;20.70;39.30;;;;;;4991248;28;20380;-72
2022/03/12 03:03:44;;;;;;;8.25;4.82;;;20.70;39.10;;;;;;4990360;28;20411;-72
2022/03/12 03:06:13;;;;;;;7.20;4.55;;;20.70;38.90;;;;;;4991648;28;20139;-72
2022/03/12 03:08:39;;;;;;;8.02;4.80;;;20.70;39.20;;;;;;4991610;28;20093;-72
2022/03/12 03:11:13;;;;;;;6.43;4.13;;;20.70;39.30;;;;;;4991114;28;20026;-73
2022/03/12 03:13:44;;;;;;;7.75;4.78;;;20.70;40.00;;;;;;4990328;28;20045;-72
2022/03/12 03:16:22;;;;;;;7.57;4.53;;;20.70;39.40;;;;;;4990326;28;20275;-72
2022/03/12 03:18:53;;;;;;;7.72;4.53;;;20.70;39.00;;;;;;4973988;28;20653;-72
2022/03/12 03:21:23;;;;;;;7.78;4.80;;;20.70;39.40;;;;;;4990041;28;20081;-72
2022/03/12 03:23:50;;;;;;;10.65;5.30;;;20.70;39.40;;;;;;4991546;28;20426;-72
2022/03/12 03:26:38;;;;;;;7.28;4.47;;;20.70;39.40;;;;;;4990240;28;20053;-72
2022/03/12 03:29:05;;;;;;;7.53;4.43;;;20.60;39.40;;;;;;4990174;28;20438;-72
2022/03/12 03:31:32;;;;;;;8.48;4.75;;;20.70;39.30;;;;;;4991682;28;20437;-73
2022/03/12 03:33:58;;;;;;;7.90;4.55;;;20.70;39.50;;;;;;4995167;28;20114;-73
2022/03/12 03:36:24;;;;;;;7.55;4.78;;;20.70;39.40;;;;;;4995501;28;20459;-72
2022/03/12 03:38:50;;;;;;;7.63;4.65;;;20.60;39.40;;;;;;4994824;28;20154;-73
2022/03/12 03:41:16;;;;;;;10.00;5.20;;;20.70;39.50;;;;;;4993232;28;20035;-72
2022/03/12 03:43:46;;;;;;;7.78;4.68;;;20.60;39.40;;;;;;4994887;28;20038;-73
2022/03/12 03:46:17;;;;;;;7.00;4.68;;;20.60;39.40;;;;;;4993529;28;20446;-73
2022/03/12 03:48:42;;;;;;;8.77;4.82;;;20.60;39.50;;;;;;4994709;28;20034;-72
2022/03/12 03:51:08;;;;;;;7.35;4.40;;;20.60;39.50;;;;;;4994083;28;20029;-72
2022/03/12 03:53:34;;;;;;;7.93;4.90;;;20.60;39.50;;;;;;4993452;28;20049;-72
2022/03/12 03:56:01;;;;;;;9.00;4.82;;;20.60;39.50;;;;;;4994397;28;20025;-72
2022/03/12 03:58:28;;;;;;;8.45;4.53;;;20.70;39.50;;;;;;4993810;28;20451;-72
2022/03/12 04:00:58;;;;;;;8.13;5.07;;;20.60;39.50;;;;;;4992956;28;20044;-72
2022/03/12 04:03:25;;;;;;;7.40;4.45;;;20.60;39.50;;;;;;4993385;28;20053;-72
2022/03/12 04:05:51;;;;;;;7.50;4.75;;;20.60;39.60;;;;;;4994264;28;20049;-73
2022/03/12 04:08:16;;;;;;;7.55;4.50;;;20.70;39.40;;;;;;4993228;28;20391;-73
2022/03/12 04:10:43;;;;;;;7.40;4.78;;;20.70;39.40;;;;;;4992595;28;20027;-73
2022/03/12 04:13:17;;;;;;;8.57;4.75;;;20.70;39.60;;;;;;4993024;28;20487;-72
2022/03/12 04:15:43;;;;;;;8.55;4.97;;;20.70;39.40;;;;;;4994259;28;20081;-73
2022/03/12 04:18:10;;;;;;;8.55;4.93;;;20.70;39.50;;;;;;4994093;28;20030;-72
2022/03/12 04:20:37;;;;;;;6.40;4.45;;;20.70;39.50;;;;;;4992842;28;20052;-72
2022/03/12 04:23:03;;;;;;;8.95;5.25;;;20.70;39.50;;;;;;4992760;28;20386;-73
2022/03/12 04:25:31;;;;;;;7.50;4.78;;;20.70;39.50;;;;;;4993722;28;20118;-73
2022/03/12 04:27:58;;;;;;;7.97;4.95;;;20.70;39.50;;;;;;4993975;28;20022;-72
2022/03/12 04:30:23;;;;;;;7.38;4.43;;;20.70;39.30;;;;;;4993481;28;20555;-73
2022/03/12 04:32:49;;;;;;;7.40;4.65;;;20.70;39.60;;;;;;4992709;28;20099;-73
2022/03/12 04:35:19;;;;;;;8.20;4.82;;;20.60;39.70;;;;;;4993861;28;20468;-73
2022/03/12 04:37:45;;;;;;;8.30;4.72;;;20.60;39.60;;;;;;4993860;28;20029;-73
2022/03/12 04:40:16;;;;;;;9.23;4.78;;;20.60;39.70;;;;;;4992573;28;20395;-73
2022/03/12 04:42:43;;;;;;;7.53;4.88;;;20.60;39.60;;;;;;4992953;28;20033;-72
2022/03/12 04:45:15;;;;;;;8.88;5.13;;;20.60;39.70;;;;;;4992377;28;20109;-72
2022/03/12 04:47:42;;;;;;;8.57;4.93;;;20.60;39.70;;;;;;4992319;28;20034;-72
2022/03/12 04:50:10;;;;;;;7.03;4.93;;;20.60;39.70;;;;;;4993204;28;20037;-73
2022/03/12 04:52:35;;;;;;;8.25;4.90;;;20.60;39.70;;;;;;4993546;28;20026;-73
2022/03/12 04:55:11;;;;;;;7.88;4.78;;;20.60;39.70;;;;;;4993338;28;20391;-72
2022/03/12 04:57:37;;;;;;;7.97;4.68;;;20.60;39.50;;;;;;4993475;28;20018;-72
2022/03/12 05:00:09;;;;;;;8.32;5.05;;;20.60;39.70;;;;;;4992794;28;20034;-72
2022/03/12 05:02:35;;;;;;;8.38;5.25;;;20.60;39.70;;;;;;4993314;28;20038;-72
2022/03/12 05:05:01;;;;;;;8.18;4.82;;;20.60;39.70;;;;;;4992271;28;20030;-72
2022/03/12 05:07:27;;;;;;;8.73;5.18;;;20.60;39.80;;;;;;4993265;28;20034;-73
2022/03/12 05:09:57;;;;;;;8.40;4.72;;;20.60;39.70;;;;;;4993204;28;20109;-72
2022/03/12 05:12:23;;;;;;;8.18;5.20;;;20.60;39.70;;;;;;4993619;28;20031;-72
2022/03/12 05:14:51;;;;;;;9.18;4.70;;;20.60;39.70;;;;;;4993164;28;20030;-71
2022/03/12 05:17:18;;;;;;;7.55;4.90;;;20.70;39.60;;;;;;4993194;28;20372;-71
2022/03/12 05:19:44;;;;;;;8.15;4.68;;;20.70;39.90;;;;;;4991675;28;20372;-71
2022/03/12 05:22:10;;;;;;;8.48;4.88;;;20.70;39.70;;;;;;4991659;28;20517;-71
2022/03/12 05:24:36;;;;;;;8.30;4.82;;;20.70;39.70;;;;;;4975618;28;20057;-72
2022/03/12 05:27:02;;;;;;;11.40;5.30;;;20.70;39.80;;;;;;4992824;28;20035;-71
2022/03/12 05:29:30;;;;;;;9.18;4.90;;;20.60;39.80;;;;;;4991317;28;20479;-72
2022/03/12 05:31:56;;;;;;;7.18;4.68;;;20.70;39.80;;;;;;4992658;28;20022;-71
2022/03/12 05:34:25;;;;;;;8.05;4.95;;;20.70;39.70;;;;;;4992675;28;20134;-71
2022/03/12 05:36:51;;;;;;;8.75;5.10;;;20.70;39.50;;;;;;4992601;28;20033;-71
2022/03/12 05:39:18;;;;;;;9.65;5.25;;;20.60;39.50;;;;;;4991500;28;20039;-71
2022/03/12 05:41:48;;;;;;;8.57;5.00;;;20.70;39.80;;;;;;4991143;28;20045;-71
2022/03/12 05:44:15;;;;;;;8.40;5.07;;;20.60;39.70;;;;;;4991337;28;20491;-71
2022/03/12 05:46:43;;;;;;;7.53;4.88;;;20.70;39.80;;;;;;4992269;28;20026;-72
2022/03/12 05:49:09;;;;;;;8.77;5.10;;;20.70;39.90;;;;;;4991265;28;20026;-71
2022/03/12 05:51:36;;;;;;;8.15;5.20;;;20.60;39.80;;;;;;4992056;28;20026;-71
2022/03/12 05:54:03;;;;;;;8.88;5.43;;;20.60;39.80;;;;;;4990576;28;20030;-71
2022/03/12 05:56:29;;;;;;;7.97;4.97;;;20.60;39.80;;;;;;4991903;28;20398;-71
2022/03/12 05:58:56;;;;;;;9.05;5.10;;;20.60;39.70;;;;;;4991274;28;20396;-71
2022/03/12 06:01:22;;;;;;;8.95;5.38;;;20.60;39.70;;;;;;4991858;28;20028;-73
2022/03/12 06:03:48;;;;;;;9.02;4.97;;;20.60;39.80;;;;;;4991103;28;20390;-72
2022/03/12 06:06:14;;;;;;;9.07;5.47;;;20.60;39.90;;;;;;4992345;28;20026;-72
2022/03/12 06:08:40;;;;;;;8.27;5.18;;;20.60;39.80;;;;;;4990851;28;20030;-73
2022/03/12 06:11:06;;;;;;;8.98;5.20;;;20.60;39.90;;;;;;4991731;28;20029;-72
2022/03/12 06:13:33;;;;;;;8.52;5.30;;;20.60;40.40;;;;;;4990976;28;20034;-72
2022/03/12 06:16:00;;;;;;;8.68;5.30;;;20.60;39.80;;;;;;4992095;28;20026;-72
2022/03/12 06:18:35;;;;;;;10.63;5.45;;;20.60;39.70;;;;;;4990629;28;20030;-72
2022/03/12 06:23:40;;;;;;;9.23;5.40;;;20.70;39.60;;;;;;4987098;28;20053;-71
2022/03/12 06:26:14;;;;;;;9.07;5.13;;;20.70;39.60;;;;;;4984385;28;20038;-72
2022/03/12 06:28:41;;;;;;;7.90;4.97;;;20.60;39.50;;;;;;4990744;28;20030;-72
2022/03/12 06:31:08;;;;;;;7.97;5.03;;;20.60;39.80;;;;;;4991761;28;20022;-72
2022/03/12 06:33:34;;;;;;;11.38;5.97;;;20.60;39.70;;;;;;4991862;28;20019;-72
2022/03/12 06:36:03;;;;;;;9.15;5.15;;;20.70;39.90;;;;;;4974467;28;20475;-73
2022/03/12 06:38:37;;;;;;;8.55;5.50;;;20.60;39.80;;;;;;4974626;28;20088;-73
2022/03/12 06:41:03;;;;;;;8.65;5.20;;;20.60;40.00;;;;;;4990234;28;20514;-73
2022/03/12 06:43:30;;;;;;;10.68;5.45;;;20.60;39.60;;;;;;4990725;28;20391;-73
2022/03/12 06:45:58;;;;;;;9.95;5.93;;;20.70;39.90;;;;;;4974672;28;20041;-73
2022/03/12 06:48:25;;;;;;;10.00;5.38;;;20.60;39.50;;;;;;4991527;28;20054;-73
2022/03/12 06:50:51;;;;;;;10.02;5.93;;;20.70;39.60;;;;;;4991768;28;20049;-73
2022/03/12 06:53:25;;;;;;;9.63;5.43;;;20.70;39.60;;;;;;4990646;28;20026;-73
2022/03/12 06:55:52;;;;;;;11.60;6.15;;;20.70;39.80;;;;;;4992023;28;20077;-73
2022/03/12 06:58:18;;;;;;;9.77;5.63;;;20.70;39.90;;;;;;4991650;28;20027;-73
2022/03/12 07:00:43;;;;;;;9.88;5.45;;;20.60;39.90;;;;;;4991320;28;20030;-73
2022/03/12 07:03:09;;;;;;;11.00;6.03;;;20.70;40.00;;;;;;4991618;28;20102;-72
2022/03/12 07:05:35;;;;;;;10.38;5.55;;;20.70;40.00;;;;;;4991950;28;20026;-73
2022/03/12 07:08:01;;;;;;;10.05;5.93;;;20.70;39.90;;;;;;4995635;28;20019;-73
2022/03/12 07:10:27;;;;;;;9.57;5.72;;;20.60;40.00;;;;;;4995075;28;20026;-73
2022/03/12 07:12:53;;;;;;;10.73;6.03;;;20.70;39.80;;;;;;4995273;28;20081;-73
2022/03/12 07:15:19;;;;;;;11.30;5.88;;;20.70;39.80;;;;;;4995417;28;20022;-72
2022/03/12 07:17:45;;;;;;;10.18;6.30;;;20.70;39.80;;;;;;4994276;28;20471;-73
2022/03/12 07:20:13;;;;;;;10.13;5.47;;;20.70;39.80;;;;;;4993678;28;20030;-73
2022/03/12 07:22:39;;;;;;;9.60;5.82;;;20.70;39.90;;;;;;4994956;28;20034;-73
2022/03/12 07:25:09;;;;;;;10.80;5.90;;;20.70;39.90;;;;;;4995179;28;20027;-73
2022/03/12 07:27:35;;;;;;;9.50;5.68;;;20.70;39.80;;;;;;4995107;28;20026;-73
2022/03/12 07:30:04;;;;;;;9.90;5.93;;;20.70;39.90;;;;;;4994534;28;20037;-73
2022/03/12 07:32:30;;;;;;;10.52;6.25;;;20.70;39.90;;;;;;4994868;28;20030;-73
2022/03/12 07:34:55;;;;;;;10.88;6.07;;;20.70;39.90;;;;;;4995064;28;20076;-73
2022/03/12 07:37:21;;;;;;;10.85;6.13;;;20.70;39.90;;;;;;4995040;28;20033;-73
2022/03/12 07:39:49;;;;;;;10.70;5.65;;;20.80;39.90;;;;;;4994326;28;20399;-73
2022/03/12 07:42:15;;;;;;;11.35;6.40;;;20.80;40.00;;;;;;4994887;28;20038;-73
2022/03/12 07:44:44;;;;;;;9.40;5.70;;;20.70;39.80;;;;;;4993671;28;20057;-73
2022/03/12 07:47:09;;;;;;;9.95;5.88;;;20.70;39.90;;;;;;4994711;28;20765;-73
2022/03/12 07:49:35;;;;;;;9.90;5.88;;;20.80;39.70;;;;;;4994146;28;20038;-73
2022/03/12 07:52:02;;;;;;;10.25;6.00;;;20.80;39.80;;;;;;4994636;28;20399;-73
2022/03/12 07:54:30;;;;;;;8.30;5.30;;;20.80;39.90;;;;;;4994512;28;20070;-73
2022/03/12 07:56:56;;;;;;;8.75;5.30;;;20.80;40.20;;;;;;4994675;28;20023;-73
2022/03/12 07:59:22;;;;;;;9.93;5.55;;;20.80;40.40;;;;;;4994063;28;20069;-73
2022/03/12 08:01:48;;;;;;;9.93;5.47;;;20.90;40.50;;;;;;4994686;28;20030;-73
2022/03/12 08:04:14;;;;;;;10.55;5.55;;;20.90;40.60;;;;;;4994282;28;20034;-73
2022/03/12 08:06:40;;;;;;;9.63;5.68;;;20.90;40.70;;;;;;4993166;28;20092;-73
2022/03/12 08:09:06;;;;;;;8.65;5.47;;;20.90;40.80;;;;;;4994058;28;20054;-73
2022/03/12 08:11:34;;;;;;;10.48;5.55;;;20.90;40.90;;;;;;4994110;28;20029;-73
2022/03/12 08:14:06;;;;;;;9.70;5.90;;;21.00;41.00;;;;;;4994290;28;20506;-73
2022/03/12 08:16:33;;;;;;;8.30;5.13;;;20.90;41.00;;;;;;4994316;28;20061;-73
2022/03/12 08:19:07;;;;;;;9.93;5.80;;;21.00;41.10;;;;;;4992781;28;20106;-73
2022/03/12 08:21:34;;;;;;;10.82;6.00;;;21.00;41.10;;;;;;4992393;28;20531;-73
2022/03/12 08:24:02;;;;;;;9.20;5.80;;;21.00;41.10;;;;;;4993931;28;20035;-73
2022/03/12 08:26:29;;;;;;;10.32;5.65;;;21.00;41.10;;;;;;4994150;28;20399;-72
2022/03/12 08:28:55;;;;;;;9.23;5.32;;;21.00;41.10;;;;;;4993915;28;20401;-73
2022/03/12 08:31:21;;;;;;;10.25;5.72;;;21.00;41.10;;;;;;4992176;28;20030;-73
2022/03/12 08:33:47;;;;;;;8.30;5.63;;;21.00;41.10;;;;;;4993977;28;20029;-73
2022/03/12 08:36:14;;;;;;;9.32;5.70;;;21.00;41.20;;;;;;4993764;28;20030;-73
2022/03/12 08:38:44;;;;;;;9.57;6.00;;;21.00;41.20;;;;;;4992660;28;20081;-73
2022/03/12 08:41:11;;;;;;;10.05;6.00;;;21.00;41.20;;;;;;4993261;28;20113;-73
2022/03/12 08:43:37;;;;;;;11.10;5.55;;;21.10;41.30;;;;;;4992573;28;20041;-73
2022/03/12 08:46:07;;;;;;;8.82;5.22;;;21.10;41.20;;;;;;4993530;28;20487;-73
2022/03/12 08:48:34;;;;;;;9.77;6.20;;;21.10;41.20;;;;;;4993713;28;20038;-73
2022/03/12 08:51:01;;;;;;;10.07;5.55;;;21.10;41.20;;;;;;4993161;28;20420;-73
2022/03/12 08:53:27;;;;;;;9.05;5.55;;;21.10;41.20;;;;;;4993283;28;20106;-73
2022/03/12 08:55:53;;;;;;;10.68;5.43;;;21.10;41.20;;;;;;4993193;28;20022;-73
2022/03/12 08:58:19;;;;;;;10.65;5.43;;;21.10;41.20;;;;;;4993700;28;20038;-72
2022/03/12 09:00:45;;;;;;;8.82;5.30;;;21.10;41.20;;;;;;4991699;28;20434;-73
2022/03/12 09:03:12;;;;;;;8.27;5.18;;;21.10;41.20;;;;;;4993331;28;20030;-72
2022/03/12 09:05:38;;;;;;;9.30;5.68;;;21.10;41.20;;;;;;4993116;28;20036;-73
2022/03/12 09:08:04;;;;;;;10.27;5.82;;;21.10;41.20;;;;;;4993158;28;20027;-72
2022/03/12 09:10:30;;;;;;;9.18;5.50;;;21.10;41.20;;;;;;4992736;28;20081;-73
2022/03/12 09:12:56;;;;;;;9.45;5.32;;;21.20;41.30;;;;;;4992986;28;20030;-73
2022/03/12 09:15:24;;;;;;;8.20;5.53;;;21.20;41.30;;;;;;4992935;28;20030;-73
2022/03/12 09:17:51;;;;;;;10.23;5.55;;;21.20;41.30;;;;;;4993081;28;20026;-73
2022/03/12 09:20:17;;;;;;;10.27;5.70;;;21.20;41.30;;;;;;4991559;28;20040;-73
2022/03/12 09:22:42;;;;;;;10.07;5.47;;;21.20;41.30;;;;;;4992569;28;20117;-73
2022/03/12 09:25:12;;;;;;;8.32;5.50;;;21.20;41.30;;;;;;4992942;28;20034;-73
2022/03/12 09:27:38;;;;;;;9.38;5.63;;;21.20;41.30;;;;;;4992760;28;20387;-73
2022/03/12 09:30:05;;;;;;;10.13;5.65;;;21.20;41.30;;;;;;4992079;28;20026;-73
2022/03/12 09:32:31;;;;;;;8.77;5.75;;;21.20;41.40;;;;;;4992623;28;20495;-73
2022/03/12 09:34:57;;;;;;;8.73;5.38;;;21.20;41.30;;;;;;4992520;28;20037;-72
2022/03/12 09:37:23;;;;;;;8.85;5.78;;;21.20;41.40;;;;;;4991297;28;20475;-73
2022/03/12 09:39:48;;;;;;;9.77;5.53;;;21.30;41.40;;;;;;4991075;28;20040;-73
2022/03/12 09:42:14;;;;;;;9.45;5.63;;;21.30;41.50;;;;;;4992540;28;20030;-73
2022/03/12 09:44:40;;;;;;;9.65;5.55;;;21.30;41.50;;;;;;4992408;28;20061;-73
2022/03/12 09:47:07;;;;;;;9.30;5.25;;;21.30;41.50;;;;;;4991272;28;20427;-73
2022/03/12 09:49:35;;;;;;;9.45;5.60;;;21.30;41.50;;;;;;4990617;28;20030;-73
2022/03/12 09:52:01;;;;;;;9.13;5.47;;;21.30;41.50;;;;;;4959332;28;20041;-73
2022/03/12 09:54:28;;;;;;;9.98;6.00;;;21.20;41.40;;;;;;4959128;28;20031;-73
2022/03/12 09:56:54;;;;;;;10.82;5.47;;;21.30;41.50;;;;;;4992193;28;20076;-73
2022/03/12 09:59:20;;;;;;;9.18;5.50;;;21.20;41.50;;;;;;4992026;28;20054;-73
2022/03/12 10:01:46;;;;;;;10.13;5.63;;;21.20;41.50;;;;;;4992070;28;20497;-72
2022/03/12 10:04:12;;;;;;;8.38;5.35;;;21.20;41.50;;;;;;4992211;28;20111;-72
2022/03/12 10:06:40;;;;;;;10.27;5.38;;;21.20;41.30;;;;;;4992239;28;20399;-73
2022/03/12 10:09:08;;;;;;;8.75;5.35;;;21.20;41.30;;;;;;4990828;28;20142;-72
2022/03/12 10:11:34;;;;;;;9.98;5.53;;;21.20;41.30;;;;;;4974337;28;20491;-73
2022/03/12 10:14:00;;;;;;;10.02;5.70;;;21.20;41.30;;;;;;4990919;28;20035;-73
2022/03/12 10:16:25;;;;;;;8.30;5.40;;;21.20;41.40;;;;;;4991261;28;20423;-73
2022/03/12 10:18:51;;;;;;;8.82;5.53;;;21.20;41.40;;;;;;4974670;28;20030;-73
2022/03/12 10:21:17;;;;;;;10.10;5.72;;;21.20;41.40;;;;;;4990208;28;20398;-72
2022/03/12 10:23:43;;;;;;;9.50;5.45;;;21.20;41.50;;;;;;4992113;28;20117;-72
2022/03/12 10:26:09;;;;;;;9.80;5.63;;;21.20;41.50;;;;;;4991744;28;20061;-73
2022/03/12 10:28:36;;;;;;;9.18;5.65;;;21.20;41.60;;;;;;4991899;28;20072;-72
2022/03/12 10:31:05;;;;;;;9.93;5.60;;;21.20;41.60;;;;;;4991553;28;20053;-73
2022/03/12 10:33:32;;;;;;;9.20;5.38;;;21.20;41.70;;;;;;4990751;28;20022;-72
2022/03/12 10:36:15;;;;;;;10.18;6.00;;;21.20;41.70;;;;;;4990612;28;20026;-72
2022/03/12 10:38:43;;;;;;;9.43;5.70;;;21.20;41.70;;;;;;4992039;28;20407;-73
2022/03/12 10:41:10;;;;;;;8.73;5.35;;;21.20;41.70;;;;;;4992869;28;20030;-73
2022/03/12 10:43:47;;;;;;;9.35;5.35;;;21.20;41.80;;;;;;4995907;28;20023;-72
2022/03/12 10:46:22;;;;;;;8.35;4.90;;;21.20;41.80;;;;;;4978601;28;20057;-72
2022/03/12 10:48:58;;;;;;;9.07;5.47;;;21.20;41.80;;;;;;4994521;28;20038;-73
2022/03/12 10:51:36;;;;;;;10.57;6.03;;;21.20;41.80;;;;;;4995415;28;20077;-72
2022/03/12 10:54:15;;;;;;;10.18;5.90;;;21.20;41.80;;;;;;4994611;28;20109;-72
2022/03/12 10:56:46;;;;;;;10.93;5.75;;;21.20;41.80;;;;;;4995671;28;20030;-73
2022/03/12 10:59:23;;;;;;;9.30;5.45;;;21.20;42.30;;;;;;4995661;28;20489;-73
2022/03/12 11:01:55;;;;;;;9.15;5.53;;;21.20;41.70;;;;;;4995439;28;20437;-73
2022/03/12 11:04:37;;;;;;;;;;;;;;;;;;;;;
2022/03/12 11:07:30;;;;;;;9.10;5.47;;;21.20;41.60;;;;;;4992032;28;20050;-72
2022/03/12 11:13:39;;;;;;;8.45;5.32;;;21.20;41.60;;;;;;4981142;28;20051;-72
2022/03/12 11:16:24;;;;;;;9.73;5.45;;;21.10;41.60;;;;;;4950679;29;20031;-71
2022/03/12 11:19:07;;;;;;;8.85;5.88;;;21.10;41.50;;;;;;4961763;29;20403;-73
2022/03/12 11:21:43;;;;;;;10.13;5.90;;;21.10;41.50;;;;;;4956757;28;20475;-72
2022/03/12 11:24:15;;;;;;;8.20;5.28;;;21.10;41.50;;;;;;4958284;29;20399;-72
2022/03/12 11:26:53;;;;;;;9.07;5.28;;;21.20;41.60;;;;;;4958254;28;20031;-72
2022/03/12 11:29:21;;;;;;;8.68;5.60;;;21.10;41.60;;;;;;4958195;29;20102;-73
2022/03/12 11:31:57;;;;;;;10.48;5.75;;;21.20;41.70;;;;;;4958401;28;20484;-73
2022/03/12 11:34:25;;;;;;;9.40;5.47;;;21.10;41.70;;;;;;4957138;29;20090;-73
2022/03/12 11:36:57;;;;;;;9.13;5.70;;;21.10;41.80;;;;;;4955536;29;20507;-73
2022/03/12 11:39:39;;;;;;;9.85;5.93;;;21.20;41.80;;;;;;4955234;29;20083;-73
2022/03/12 11:42:11;;;;;;;8.77;5.45;;;21.20;41.80;;;;;;4956535;28;20491;-72
2022/03/12 11:44:38;;;;;;;8.75;5.10;;;21.10;41.80;;;;;;4957876;29;20412;-72
2022/03/12 11:47:05;;;;;;;9.35;5.45;;;21.10;41.80;;;;;;4957043;29;20031;-72
2022/03/12 11:49:32;;;;;;;9.95;5.55;;;21.10;41.70;;;;;;4954401;29;20443;-73
2022/03/12 11:51:59;;;;;;;8.95;5.30;;;21.10;41.70;;;;;;4955961;28;20082;-72
2022/03/12 11:54:25;;;;;;;7.47;4.90;;;21.10;41.70;;;;;;4954847;29;20285;-73
2022/03/12 11:56:51;;;;;;;8.60;5.40;;;21.10;41.70;;;;;;4954497;28;20023;-73
2022/03/12 11:59:18;;;;;;;8.25;5.13;;;21.10;41.70;;;;;;4954429;29;20448;-73
2022/03/12 12:02:02;;;;;;;9.80;5.57;;;21.10;41.80;;;;;;4955405;28;20036;-72
2022/03/12 12:04:32;;;;;;;9.07;5.50;;;21.10;41.80;;;;;;4954487;29;20027;-73
2022/03/12 12:06:59;;;;;;;9.23;5.70;;;21.10;41.80;;;;;;4955463;29;20035;-72
2022/03/12 12:09:27;;;;;;;8.55;5.07;;;21.10;41.80;;;;;;4954117;29;20035;-73
2022/03/12 12:11:53;;;;;;;8.98;5.50;;;21.10;41.80;;;;;;4955462;28;20036;-72
2022/03/12 12:14:19;;;;;;;7.35;4.93;;;21.10;41.90;;;;;;4954646;29;20031;-72
2022/03/12 12:16:48;;;;;;;8.25;5.35;;;21.10;41.80;;;;;;4954121;29;20063;-73
2022/03/12 12:19:16;;;;;;;8.77;5.23;;;21.10;41.80;;;;;;4955295;29;20035;-72
2022/03/12 12:21:42;;;;;;;9.13;5.38;;;21.10;41.80;;;;;;4955156;28;20023;-72
2022/03/12 12:24:28;;;;;;;9.57;5.45;;;21.10;41.80;;;;;;4955175;29;20090;-73
2022/03/12 12:26:58;;;;;;;8.63;5.07;;;21.10;41.70;;;;;;4954992;29;20039;-72
2022/03/12 12:29:55;;;;;;;7.78;4.93;;;21.10;41.60;;;;;;4937808;29;20038;-72
2022/03/12 12:32:21;;;;;;;8.90;5.40;;;21.10;41.50;;;;;;4942716;28;20448;-73
2022/03/12 12:35:02;;;;;;;8.25;5.18;;;21.10;41.40;;;;;;4953795;29;20488;-73
2022/03/12 12:37:47;;;;;;;10.50;5.72;;;21.10;41.40;;;;;;4954888;29;20031;-73
2022/03/12 12:40:36;;;;;;;9.57;5.18;;;21.10;41.40;;;;;;4937952;29;20055;-73
2022/03/12 12:43:09;;;;;;;7.07;4.80;;;21.10;41.40;;;;;;4922125;29;20039;-73
2022/03/12 12:45:51;;;;;;;8.18;4.95;;;21.10;41.40;;;;;;4954197;29;20082;-72
2022/03/12 12:48:19;;;;;;;8.95;5.35;;;21.10;41.50;;;;;;4955338;29;20047;-72
2022/03/12 12:51:17;;;;;;;7.97;5.28;;;21.10;41.50;;;;;;4954874;28;20480;-72
2022/03/12 12:53:45;;;;;;;8.38;5.18;;;21.10;41.40;;;;;;4954753;29;20030;-73
2022/03/12 12:56:21;;;;;;;7.55;4.75;;;21.10;41.40;;;;;;4954909;28;20027;-73
2022/03/12 12:58:53;;;;;;;9.10;5.20;;;21.10;41.50;;;;;;4953728;29;20035;-73